sensor_id;sensor_type;location;lat;lon;timestamp;temperature;humidity
20446;DHT22;10382;49.140;9.234;2022-09-27T00:00:14;12.40;99.90
20446;DHT22;10382;49.140;9.234;2022-09-27T00:02:41;12.40;99.90
20446;DHT22;10382;49.140;9.234;2022-09-27T00:05:09;12.50;99.90
20446;DHT22;10382;49.140;9.234;2022-09-27T00:07:36;12.50;99.90
20446;DHT22;10382;49.140;9.234;2022-09-27T00:10:04;12.40;99.90
20446;DHT22;10382;49.140;9.234;2022-09-27T00:12:31;12.40;99.90
20446;DHT22;10382;49.140;9.234;2022-09-27T00:14:58;12.50;99.90
20446;DHT22;10382;49.140;9.234;2022-09-27T00:17:27;12.50;99.90
20446;DHT22;10382;49.140;9.234;2022-09-27T00:19:54;12.50;99.90
20446;DHT22;10382;49.140;9.234;2022-09-27T00:22:21;12.50;99.90
20446;DHT22;10382;49.140;9.234;2022-09-27T00:24:48;12.50;99.90
20446;DHT22;10382;49.140;9.234;2022-09-27T00:27:15;12.50;99.90
20446;DHT22;10382;49.140;9.234;2022-09-27T00:29:43;12.60;99.90
20446;DHT22;10382;49.140;9.234;2022-09-27T00:32:11;12.60;99.90
20446;DHT22;10382;49.140;9.234;2022-09-27T00:34:40;12.50;99.90
20446;DHT22;10382;49.140;9.234;2022-09-27T00:37:08;12.50;99.90
20446;DHT22;10382;49.140;9.234;2022-09-27T00:39:35;12.50;99.90
20446;DHT22;10382;49.140;9.234;2022-09-27T00:42:04;12.50;99.90
20446;DHT22;10382;49.140;9.234;2022-09-27T00:44:58;12.50;99.90
20446;DHT22;10382;49.140;9.234;2022-09-27T00:47:31;12.40;99.90
20446;DHT22;10382;49.140;9.234;2022-09-27T00:50:04;12.40;99.90
20446;DHT22;10382;49.140;9.234;2022-09-27T00:52:38;12.40;99.90
20446;DHT22;10382;49.140;9.234;2022-09-27T00:55:12;12.30;99.90
20446;DHT22;10382;49.140;9.234;2022-09-27T00:57:41;12.30;99.90
20446;DHT22;10382;49.140;9.234;2022-09-27T01:00:11;12.20;99.90
20446;DHT22;10382;49.140;9.234;2022-09-27T01:02:42;12.00;99.90
20446;DHT22;10382;49.140;9.234;2022-09-27T01:05:13;11.90;99.90
20446;DHT22;10382;49.140;9.234;2022-09-27T01:07:40;11.90;99.90
20446;DHT22;10382;49.140;9.234;2022-09-27T01:10:08;11.90;99.90
20446;DHT22;10382;49.140;9.234;2022-09-27T01:12:44;12.00;99.90
20446;DHT22;10382;49.140;9.234;2022-09-27T01:15:24;12.00;99.90
20446;DHT22;10382;49.140;9.234;2022-09-27T01:18:04;12.10;99.90
20446;DHT22;10382;49.140;9.234;2022-09-27T01:23:57;12.20;99.90
20446;DHT22;10382;49.140;9.234;2022-09-27T01:26:48;12.10;99.90
20446;DHT22;10382;49.140;9.234;2022-09-27T01:29:27;12.10;99.90
20446;DHT22;10382;49.140;9.234;2022-09-27T01:32:03;12.00;99.90
20446;DHT22;10382;49.140;9.234;2022-09-27T01:34:36;11.90;99.90
20446;DHT22;10382;49.140;9.234;2022-09-27T01:37:11;12.00;99.90
20446;DHT22;10382;49.140;9.234;2022-09-27T01:39:48;12.00;99.90
20446;DHT22;10382;49.140;9.234;2022-09-27T01:42:20;11.90;99.90
20446;DHT22;10382;49.140;9.234;2022-09-27T01:44:50;12.00;99.90
20446;DHT22;10382;49.140;9.234;2022-09-27T01:47:22;12.10;99.90
20446;DHT22;10382;49.140;9.234;2022-09-27T01:49:54;12.10;99.90
20446;DHT22;10382;49.140;9.234;2022-09-27T01:52:26;12.10;99.90
20446;DHT22;10382;49.140;9.234;2022-09-27T01:54:58;12.10;99.90
20446;DHT22;10382;49.140;9.234;2022-09-27T01:57:31;12.10;99.90
20446;DHT22;10382;49.140;9.234;2022-09-27T02:00:04;12.10;99.90
20446;DHT22;10382;49.140;9.234;2022-09-27T02:02:35;12.10;99.90
20446;DHT22;10382;49.140;9.234;2022-09-27T02:05:06;12.10;99.90
20446;DHT22;10382;49.140;9.234;2022-09-27T02:07:40;12.10;99.90
20446;DHT22;10382;49.140;9.234;2022-09-27T02:10:12;12.10;99.90
20446;DHT22;10382;49.140;9.234;2022-09-27T02:12:46;12.00;99.90
20446;DHT22;10382;49.140;9.234;2022-09-27T02:15:17;12.00;99.90
20446;DHT22;10382;49.140;9.234;2022-09-27T02:17:52;12.00;99.90
20446;DHT22;10382;49.140;9.234;2022-09-27T02:20:28;12.00;99.90
20446;DHT22;10382;49.140;9.234;2022-09-27T02:23:04;12.00;99.90
20446;DHT22;10382;49.140;9.234;2022-09-27T02:25:39;12.00;99.90
20446;DHT22;10382;49.140;9.234;2022-09-27T02:28:16;12.00;99.90
20446;DHT22;10382;49.140;9.234;2022-09-27T02:30:47;11.90;99.90
20446;DHT22;10382;49.140;9.234;2022-09-27T02:33:17;11.80;99.90
20446;DHT22;10382;49.140;9.234;2022-09-27T02:35:45;11.80;99.90
20446;DHT22;10382;49.140;9.234;2022-09-27T02:38:13;11.70;99.90
20446;DHT22;10382;49.140;9.234;2022-09-27T02:40:45;11.70;99.90
20446;DHT22;10382;49.140;9.234;2022-09-27T02:43:14;11.60;99.90
20446;DHT22;10382;49.140;9.234;2022-09-27T02:45:52;11.50;99.90
20446;DHT22;10382;49.140;9.234;2022-09-27T02:48:30;11.60;99.90
20446;DHT22;10382;49.140;9.234;2022-09-27T02:51:11;11.50;99.90
20446;DHT22;10382;49.140;9.234;2022-09-27T02:53:48;11.50;99.90
20446;DHT22;10382;49.140;9.234;2022-09-27T02:56:24;11.50;99.90
20446;DHT22;10382;49.140;9.234;2022-09-27T02:58:57;11.40;99.90
20446;DHT22;10382;49.140;9.234;2022-09-27T03:01:32;11.40;99.90
20446;DHT22;10382;49.140;9.234;2022-09-27T03:04:06;11.40;99.90
20446;DHT22;10382;49.140;9.234;2022-09-27T03:06:37;11.30;99.90
20446;DHT22;10382;49.140;9.234;2022-09-27T03:09:05;11.30;99.90
20446;DHT22;10382;49.140;9.234;2022-09-27T03:11:39;11.30;99.90
20446;DHT22;10382;49.140;9.234;2022-09-27T03:14:06;11.30;99.90
20446;DHT22;10382;49.140;9.234;2022-09-27T03:16:34;11.30;99.90
20446;DHT22;10382;49.140;9.234;2022-09-27T03:19:03;11.30;99.90
20446;DHT22;10382;49.140;9.234;2022-09-27T03:21:30;11.30;99.90
20446;DHT22;10382;49.140;9.234;2022-09-27T03:23:57;11.20;99.90
20446;DHT22;10382;49.140;9.234;2022-09-27T03:26:24;11.20;99.90
20446;DHT22;10382;49.140;9.234;2022-09-27T03:28:51;11.20;99.90
20446;DHT22;10382;49.140;9.234;2022-09-27T03:31:18;11.30;99.90
20446;DHT22;10382;49.140;9.234;2022-09-27T03:33:46;11.30;99.90
20446;DHT22;10382;49.140;9.234;2022-09-27T03:36:14;11.20;99.90
20446;DHT22;10382;49.140;9.234;2022-09-27T03:38:41;11.20;99.90
20446;DHT22;10382;49.140;9.234;2022-09-27T03:41:08;11.20;99.90
20446;DHT22;10382;49.140;9.234;2022-09-27T03:43:35;11.30;99.90
20446;DHT22;10382;49.140;9.234;2022-09-27T03:46:02;11.30;99.90
20446;DHT22;10382;49.140;9.234;2022-09-27T03:48:29;11.30;99.90
20446;DHT22;10382;49.140;9.234;2022-09-27T03:50:56;11.30;99.90
20446;DHT22;10382;49.140;9.234;2022-09-27T03:53:25;11.30;99.90
20446;DHT22;10382;49.140;9.234;2022-09-27T03:55:51;11.30;99.90
20446;DHT22;10382;49.140;9.234;2022-09-27T03:58:18;11.30;99.90
20446;DHT22;10382;49.140;9.234;2022-09-27T04:00:45;11.30;99.90
20446;DHT22;10382;49.140;9.234;2022-09-27T04:03:13;11.30;99.90
20446;DHT22;10382;49.140;9.234;2022-09-27T04:05:39;11.30;99.90
20446;DHT22;10382;49.140;9.234;2022-09-27T04:08:06;11.30;99.90
20446;DHT22;10382;49.140;9.234;2022-09-27T04:10:37;11.30;99.90
20446;DHT22;10382;49.140;9.234;2022-09-27T04:13:04;11.30;99.90
20446;DHT22;10382;49.140;9.234;2022-09-27T04:15:31;11.20;99.90
20446;DHT22;10382;49.140;9.234;2022-09-27T04:17:58;11.10;99.90
20446;DHT22;10382;49.140;9.234;2022-09-27T04:20:25;11.10;99.90
20446;DHT22;10382;49.140;9.234;2022-09-27T04:22:51;11.00;99.90
20446;DHT22;10382;49.140;9.234;2022-09-27T04:25:18;10.90;99.90
20446;DHT22;10382;49.140;9.234;2022-09-27T04:27:47;11.00;99.90
20446;DHT22;10382;49.140;9.234;2022-09-27T04:30:20;11.00;99.90
20446;DHT22;10382;49.140;9.234;2022-09-27T04:32:47;11.00;99.90
20446;DHT22;10382;49.140;9.234;2022-09-27T04:35:14;10.90;99.90
20446;DHT22;10382;49.140;9.234;2022-09-27T04:37:59;10.90;99.90
20446;DHT22;10382;49.140;9.234;2022-09-27T04:40:26;11.00;99.90
20446;DHT22;10382;49.140;9.234;2022-09-27T04:42:55;10.90;99.90
20446;DHT22;10382;49.140;9.234;2022-09-27T04:45:22;11.00;99.90
20446;DHT22;10382;49.140;9.234;2022-09-27T04:47:49;11.00;99.90
20446;DHT22;10382;49.140;9.234;2022-09-27T04:50:17;10.90;99.90
20446;DHT22;10382;49.140;9.234;2022-09-27T04:52:49;10.90;99.90
20446;DHT22;10382;49.140;9.234;2022-09-27T04:55:17;10.90;99.90
20446;DHT22;10382;49.140;9.234;2022-09-27T04:57:45;10.90;99.90
20446;DHT22;10382;49.140;9.234;2022-09-27T05:00:14;11.00;99.90
20446;DHT22;10382;49.140;9.234;2022-09-27T05:02:41;11.00;99.90
20446;DHT22;10382;49.140;9.234;2022-09-27T05:05:08;11.10;99.90
20446;DHT22;10382;49.140;9.234;2022-09-27T05:07:37;11.20;99.90
20446;DHT22;10382;49.140;9.234;2022-09-27T05:10:05;11.30;99.90
20446;DHT22;10382;49.140;9.234;2022-09-27T05:12:32;11.40;99.90
20446;DHT22;10382;49.140;9.234;2022-09-27T05:15:00;11.40;99.90
20446;DHT22;10382;49.140;9.234;2022-09-27T05:17:28;11.40;99.90
20446;DHT22;10382;49.140;9.234;2022-09-27T05:19:55;11.50;99.90
20446;DHT22;10382;49.140;9.234;2022-09-27T05:22:22;11.50;99.90
20446;DHT22;10382;49.140;9.234;2022-09-27T05:24:49;11.50;99.90
20446;DHT22;10382;49.140;9.234;2022-09-27T05:27:16;11.60;99.90
20446;DHT22;10382;49.140;9.234;2022-09-27T05:29:45;11.70;99.90
20446;DHT22;10382;49.140;9.234;2022-09-27T05:32:12;11.70;99.90
20446;DHT22;10382;49.140;9.234;2022-09-27T05:34:40;11.60;99.90
20446;DHT22;10382;49.140;9.234;2022-09-27T05:37:07;11.40;99.90
20446;DHT22;10382;49.140;9.234;2022-09-27T05:39:35;11.40;99.90
20446;DHT22;10382;49.140;9.234;2022-09-27T05:42:02;11.40;99.90
20446;DHT22;10382;49.140;9.234;2022-09-27T05:44:29;11.30;99.90
20446;DHT22;10382;49.140;9.234;2022-09-27T05:46:58;11.30;99.90
20446;DHT22;10382;49.140;9.234;2022-09-27T05:49:26;11.30;99.90
20446;DHT22;10382;49.140;9.234;2022-09-27T05:51:54;11.20;99.90
20446;DHT22;10382;49.140;9.234;2022-09-27T05:54:21;11.20;99.90
20446;DHT22;10382;49.140;9.234;2022-09-27T05:56:48;11.20;99.90
20446;DHT22;10382;49.140;9.234;2022-09-27T05:59:15;11.20;99.90
20446;DHT22;10382;49.140;9.234;2022-09-27T06:01:42;11.20;99.90
20446;DHT22;10382;49.140;9.234;2022-09-27T06:04:09;11.30;99.90
20446;DHT22;10382;49.140;9.234;2022-09-27T06:06:36;11.20;99.90
20446;DHT22;10382;49.140;9.234;2022-09-27T06:09:09;11.20;99.90
20446;DHT22;10382;49.140;9.234;2022-09-27T06:11:36;11.20;99.90
20446;DHT22;10382;49.140;9.234;2022-09-27T06:14:03;11.20;99.90
20446;DHT22;10382;49.140;9.234;2022-09-27T06:16:30;11.10;99.90
20446;DHT22;10382;49.140;9.234;2022-09-27T06:18:57;11.10;99.90
20446;DHT22;10382;49.140;9.234;2022-09-27T06:21:24;11.20;99.90
20446;DHT22;10382;49.140;9.234;2022-09-27T06:23:53;11.20;99.90
20446;DHT22;10382;49.140;9.234;2022-09-27T06:26:22;11.20;99.90
20446;DHT22;10382;49.140;9.234;2022-09-27T06:28:49;11.30;99.90
20446;DHT22;10382;49.140;9.234;2022-09-27T06:31:16;11.30;99.90
20446;DHT22;10382;49.140;9.234;2022-09-27T06:33:43;11.30;99.90
20446;DHT22;10382;49.140;9.234;2022-09-27T06:36:10;11.30;99.90
20446;DHT22;10382;49.140;9.234;2022-09-27T06:38:37;11.30;99.90
20446;DHT22;10382;49.140;9.234;2022-09-27T06:41:04;11.30;99.90
20446;DHT22;10382;49.140;9.234;2022-09-27T06:43:35;11.40;99.90
20446;DHT22;10382;49.140;9.234;2022-09-27T06:46:02;11.40;99.90
20446;DHT22;10382;49.140;9.234;2022-09-27T06:48:30;11.40;99.90
20446;DHT22;10382;49.140;9.234;2022-09-27T06:50:58;11.30;99.90
20446;DHT22;10382;49.140;9.234;2022-09-27T06:53:25;11.30;99.90
20446;DHT22;10382;49.140;9.234;2022-09-27T06:55:57;11.20;99.90
20446;DHT22;10382;49.140;9.234;2022-09-27T06:58:24;11.20;99.90
20446;DHT22;10382;49.140;9.234;2022-09-27T07:01:10;11.20;99.90
20446;DHT22;10382;49.140;9.234;2022-09-27T07:03:37;11.30;99.90
20446;DHT22;10382;49.140;9.234;2022-09-27T07:06:15;11.30;99.90
20446;DHT22;10382;49.140;9.234;2022-09-27T07:08:48;11.40;99.90
20446;DHT22;10382;49.140;9.234;2022-09-27T07:11:16;11.50;99.90
20446;DHT22;10382;49.140;9.234;2022-09-27T07:13:43;11.50;99.90
20446;DHT22;10382;49.140;9.234;2022-09-27T07:16:12;11.50;99.90
20446;DHT22;10382;49.140;9.234;2022-09-27T07:18:39;11.40;99.90
20446;DHT22;10382;49.140;9.234;2022-09-27T07:21:06;11.20;99.90
20446;DHT22;10382;49.140;9.234;2022-09-27T07:23:34;11.00;99.90
20446;DHT22;10382;49.140;9.234;2022-09-27T07:26:02;11.00;99.90
20446;DHT22;10382;49.140;9.234;2022-09-27T07:28:32;11.00;99.90
20446;DHT22;10382;49.140;9.234;2022-09-27T07:30:59;11.00;99.90
20446;DHT22;10382;49.140;9.234;2022-09-27T07:33:29;11.00;99.90
20446;DHT22;10382;49.140;9.234;2022-09-27T07:35:56;11.00;99.90
20446;DHT22;10382;49.140;9.234;2022-09-27T07:38:23;11.00;99.90
20446;DHT22;10382;49.140;9.234;2022-09-27T07:40:50;11.00;99.90
20446;DHT22;10382;49.140;9.234;2022-09-27T07:43:18;11.00;99.90
20446;DHT22;10382;49.140;9.234;2022-09-27T07:45:45;11.10;99.90
20446;DHT22;10382;49.140;9.234;2022-09-27T07:48:14;11.10;99.90
20446;DHT22;10382;49.140;9.234;2022-09-27T07:50:42;11.10;99.90
20446;DHT22;10382;49.140;9.234;2022-09-27T07:53:09;11.00;99.90
20446;DHT22;10382;49.140;9.234;2022-09-27T07:55:38;11.00;99.90
20446;DHT22;10382;49.140;9.234;2022-09-27T07:58:06;11.00;99.90
20446;DHT22;10382;49.140;9.234;2022-09-27T08:00:34;11.00;99.90
20446;DHT22;10382;49.140;9.234;2022-09-27T08:03:05;11.10;99.90
20446;DHT22;10382;49.140;9.234;2022-09-27T08:05:33;11.10;99.90
20446;DHT22;10382;49.140;9.234;2022-09-27T08:08:02;11.20;99.90
20446;DHT22;10382;49.140;9.234;2022-09-27T08:10:30;11.30;99.90
20446;DHT22;10382;49.140;9.234;2022-09-27T08:12:57;11.40;99.90
20446;DHT22;10382;49.140;9.234;2022-09-27T08:15:24;11.50;99.90
20446;DHT22;10382;49.140;9.234;2022-09-27T08:17:53;11.50;99.90
20446;DHT22;10382;49.140;9.234;2022-09-27T08:20:20;11.50;99.90
20446;DHT22;10382;49.140;9.234;2022-09-27T08:22:47;11.50;99.90
20446;DHT22;10382;49.140;9.234;2022-09-27T08:25:15;11.60;99.90
20446;DHT22;10382;49.140;9.234;2022-09-27T08:27:42;11.70;99.90
20446;DHT22;10382;49.140;9.234;2022-09-27T08:30:10;11.90;99.90
20446;DHT22;10382;49.140;9.234;2022-09-27T08:32:37;12.10;99.90
20446;DHT22;10382;49.140;9.234;2022-09-27T08:35:05;12.20;99.90
20446;DHT22;10382;49.140;9.234;2022-09-27T08:37:32;12.10;99.90
20446;DHT22;10382;49.140;9.234;2022-09-27T08:40:00;12.20;99.90
20446;DHT22;10382;49.140;9.234;2022-09-27T08:42:34;12.20;99.90
20446;DHT22;10382;49.140;9.234;2022-09-27T08:45:12;12.40;99.90
20446;DHT22;10382;49.140;9.234;2022-09-27T08:47:45;12.60;99.90
20446;DHT22;10382;49.140;9.234;2022-09-27T08:50:22;12.80;99.90
20446;DHT22;10382;49.140;9.234;2022-09-27T08:52:55;13.10;99.90
20446;DHT22;10382;49.140;9.234;2022-09-27T08:55:29;13.40;99.90
20446;DHT22;10382;49.140;9.234;2022-09-27T08:57:59;13.60;99.90
20446;DHT22;10382;49.140;9.234;2022-09-27T09:00:27;13.70;99.90
20446;DHT22;10382;49.140;9.234;2022-09-27T09:02:55;13.80;99.90
20446;DHT22;10382;49.140;9.234;2022-09-27T09:05:27;13.70;99.90
20446;DHT22;10382;49.140;9.234;2022-09-27T09:08:18;13.60;99.90
20446;DHT22;10382;49.140;9.234;2022-09-27T09:10:53;13.60;99.90
20446;DHT22;10382;49.140;9.234;2022-09-27T09:14:02;13.50;99.90
20446;DHT22;10382;49.140;9.234;2022-09-27T09:16:42;13.50;99.90
20446;DHT22;10382;49.140;9.234;2022-09-27T09:19:21;13.80;99.90
20446;DHT22;10382;49.140;9.234;2022-09-27T09:21:58;13.90;99.90
20446;DHT22;10382;49.140;9.234;2022-09-27T09:24:39;13.90;99.90
20446;DHT22;10382;49.140;9.234;2022-09-27T09:27:13;14.00;99.90
20446;DHT22;10382;49.140;9.234;2022-09-27T09:30:02;14.10;99.90
20446;DHT22;10382;49.140;9.234;2022-09-27T09:32:39;14.30;99.90
20446;DHT22;10382;49.140;9.234;2022-09-27T09:35:14;14.10;99.90
20446;DHT22;10382;49.140;9.234;2022-09-27T09:37:46;13.70;99.90
20446;DHT22;10382;49.140;9.234;2022-09-27T09:40:18;13.50;99.90
20446;DHT22;10382;49.140;9.234;2022-09-27T09:42:49;13.50;99.90
20446;DHT22;10382;49.140;9.234;2022-09-27T09:45:23;13.40;99.90
20446;DHT22;10382;49.140;9.234;2022-09-27T09:50:29;13.60;99.90
20446;DHT22;10382;49.140;9.234;2022-09-27T09:53:01;13.70;99.90
20446;DHT22;10382;49.140;9.234;2022-09-27T09:55:33;13.90;99.90
20446;DHT22;10382;49.140;9.234;2022-09-27T09:58:19;14.00;99.90
20446;DHT22;10382;49.140;9.234;2022-09-27T10:00:50;14.30;99.90
20446;DHT22;10382;49.140;9.234;2022-09-27T10:03:19;14.50;99.90
20446;DHT22;10382;49.140;9.234;2022-09-27T10:05:46;14.40;99.90
20446;DHT22;10382;49.140;9.234;2022-09-27T10:08:17;13.80;99.90
20446;DHT22;10382;49.140;9.234;2022-09-27T10:10:44;13.30;99.90
20446;DHT22;10382;49.140;9.234;2022-09-27T10:13:15;13.10;99.90
20446;DHT22;10382;49.140;9.234;2022-09-27T10:15:52;13.00;99.90
20446;DHT22;10382;49.140;9.234;2022-09-27T10:18:21;12.90;99.90
20446;DHT22;10382;49.140;9.234;2022-09-27T10:20:54;12.80;99.90
20446;DHT22;10382;49.140;9.234;2022-09-27T10:23:22;12.70;99.90
20446;DHT22;10382;49.140;9.234;2022-09-27T10:25:53;12.40;99.90
20446;DHT22;10382;49.140;9.234;2022-09-27T10:28:32;12.20;99.90
20446;DHT22;10382;49.140;9.234;2022-09-27T10:31:03;12.20;99.90
20446;DHT22;10382;49.140;9.234;2022-09-27T10:33:32;12.20;99.90
20446;DHT22;10382;49.140;9.234;2022-09-27T10:36:00;12.30;99.90
20446;DHT22;10382;49.140;9.234;2022-09-27T10:38:30;12.40;99.90
20446;DHT22;10382;49.140;9.234;2022-09-27T10:40:58;12.60;99.90
20446;DHT22;10382;49.140;9.234;2022-09-27T10:43:41;12.80;99.90
20446;DHT22;10382;49.140;9.234;2022-09-27T10:46:13;13.10;99.90
20446;DHT22;10382;49.140;9.234;2022-09-27T10:48:43;13.30;99.90
20446;DHT22;10382;49.140;9.234;2022-09-27T10:51:24;13.50;99.90
20446;DHT22;10382;49.140;9.234;2022-09-27T10:53:53;13.60;99.90
20446;DHT22;10382;49.140;9.234;2022-09-27T10:56:27;13.60;99.90
20446;DHT22;10382;49.140;9.234;2022-09-27T10:58:55;13.50;99.90
20446;DHT22;10382;49.140;9.234;2022-09-27T11:01:25;13.40;99.90
20446;DHT22;10382;49.140;9.234;2022-09-27T11:03:55;12.90;99.90
20446;DHT22;10382;49.140;9.234;2022-09-27T11:06:29;12.50;99.90
20446;DHT22;10382;49.140;9.234;2022-09-27T11:09:15;12.30;99.90
20446;DHT22;10382;49.140;9.234;2022-09-27T11:11:43;12.30;99.90
20446;DHT22;10382;49.140;9.234;2022-09-27T11:14:21;12.40;99.90
20446;DHT22;10382;49.140;9.234;2022-09-27T11:17:07;12.40;99.90
20446;DHT22;10382;49.140;9.234;2022-09-27T11:19:48;12.60;99.90
20446;DHT22;10382;49.140;9.234;2022-09-27T11:22:33;12.90;99.90
20446;DHT22;10382;49.140;9.234;2022-09-27T11:25:16;13.10;99.90
20446;DHT22;10382;49.140;9.234;2022-09-27T11:27:58;13.10;99.90
20446;DHT22;10382;49.140;9.234;2022-09-27T11:30:32;13.10;99.90
20446;DHT22;10382;49.140;9.234;2022-09-27T11:33:34;13.20;99.90
20446;DHT22;10382;49.140;9.234;2022-09-27T11:36:11;13.10;99.90
20446;DHT22;10382;49.140;9.234;2022-09-27T11:38:50;13.00;99.90
20446;DHT22;10382;49.140;9.234;2022-09-27T11:41:39;12.90;99.90
20446;DHT22;10382;49.140;9.234;2022-09-27T11:47:22;12.80;99.90
20446;DHT22;10382;49.140;9.234;2022-09-27T11:50:15;12.80;99.90
20446;DHT22;10382;49.140;9.234;2022-09-27T11:52:58;12.70;99.90
20446;DHT22;10382;49.140;9.234;2022-09-27T11:55:38;12.50;99.90
20446;DHT22;10382;49.140;9.234;2022-09-27T11:58:14;12.20;99.90
20446;DHT22;10382;49.140;9.234;2022-09-27T12:00:56;11.90;99.90
20446;DHT22;10382;49.140;9.234;2022-09-27T12:03:53;11.80;99.90
20446;DHT22;10382;49.140;9.234;2022-09-27T12:06:34;11.70;99.90
20446;DHT22;10382;49.140;9.234;2022-09-27T12:09:06;11.50;99.90
20446;DHT22;10382;49.140;9.234;2022-09-27T12:11:38;11.50;99.90
20446;DHT22;10382;49.140;9.234;2022-09-27T12:14:13;11.40;99.90
20446;DHT22;10382;49.140;9.234;2022-09-27T12:16:42;11.40;99.90
20446;DHT22;10382;49.140;9.234;2022-09-27T12:19:17;11.40;99.90
20446;DHT22;10382;49.140;9.234;2022-09-27T12:21:46;11.40;99.90
20446;DHT22;10382;49.140;9.234;2022-09-27T12:24:19;11.30;99.90
20446;DHT22;10382;49.140;9.234;2022-09-27T12:26:48;11.30;99.90
20446;DHT22;10382;49.140;9.234;2022-09-27T12:29:21;11.20;99.90
20446;DHT22;10382;49.140;9.234;2022-09-27T12:31:55;11.10;99.90
20446;DHT22;10382;49.140;9.234;2022-09-27T12:34:31;11.00;99.90
20446;DHT22;10382;49.140;9.234;2022-09-27T12:37:02;11.00;99.90
20446;DHT22;10382;49.140;9.234;2022-09-27T12:39:41;10.90;99.90
20446;DHT22;10382;49.140;9.234;2022-09-27T12:42:16;11.00;99.90
20446;DHT22;10382;49.140;9.234;2022-09-27T12:44:45;11.20;99.90
20446;DHT22;10382;49.140;9.234;2022-09-27T12:50:10;11.70;99.90
20446;DHT22;10382;49.140;9.234;2022-09-27T12:52:44;11.80;99.90
20446;DHT22;10382;49.140;9.234;2022-09-27T12:55:45;12.00;99.90
20446;DHT22;10382;49.140;9.234;2022-09-27T12:58:41;12.40;99.90
20446;DHT22;10382;49.140;9.234;2022-09-27T13:01:23;12.50;99.90
20446;DHT22;10382;49.140;9.234;2022-09-27T13:04:17;12.50;99.90
20446;DHT22;10382;49.140;9.234;2022-09-27T13:06:54;12.50;99.90
20446;DHT22;10382;49.140;9.234;2022-09-27T13:09:43;12.30;99.90
20446;DHT22;10382;49.140;9.234;2022-09-27T13:12:16;12.20;99.90
20446;DHT22;10382;49.140;9.234;2022-09-27T13:14:54;12.10;99.90
20446;DHT22;10382;49.140;9.234;2022-09-27T13:26:48;12.10;99.90
20446;DHT22;10382;49.140;9.234;2022-09-27T13:29:30;12.70;99.90
20446;DHT22;10382;49.140;9.234;2022-09-27T13:32:15;13.20;99.90
20446;DHT22;10382;49.140;9.234;2022-09-27T13:34:44;13.70;99.90
20446;DHT22;10382;49.140;9.234;2022-09-27T13:40:36;13.40;99.90
20446;DHT22;10382;49.140;9.234;2022-09-27T13:43:34;13.30;99.90
20446;DHT22;10382;49.140;9.234;2022-09-27T13:46:14;13.10;99.90
20446;DHT22;10382;49.140;9.234;2022-09-27T13:48:46;13.10;99.90
20446;DHT22;10382;49.140;9.234;2022-09-27T13:51:27;12.90;99.90
20446;DHT22;10382;49.140;9.234;2022-09-27T13:54:01;12.70;99.90
20446;DHT22;10382;49.140;9.234;2022-09-27T13:56:52;12.70;99.90
20446;DHT22;10382;49.140;9.234;2022-09-27T13:59:25;12.60;99.90
20446;DHT22;10382;49.140;9.234;2022-09-27T14:02:05;12.50;99.90
20446;DHT22;10382;49.140;9.234;2022-09-27T14:04:41;12.40;99.90
20446;DHT22;10382;49.140;9.234;2022-09-27T14:07:13;12.40;99.90
20446;DHT22;10382;49.140;9.234;2022-09-27T14:09:44;12.40;99.90
20446;DHT22;10382;49.140;9.234;2022-09-27T14:12:16;12.50;99.90
20446;DHT22;10382;49.140;9.234;2022-09-27T14:14:44;12.40;99.90
20446;DHT22;10382;49.140;9.234;2022-09-27T14:17:13;12.40;99.90
20446;DHT22;10382;49.140;9.234;2022-09-27T14:19:41;12.50;99.90
20446;DHT22;10382;49.140;9.234;2022-09-27T14:22:13;12.50;99.90
20446;DHT22;10382;49.140;9.234;2022-09-27T14:24:46;12.50;99.90
20446;DHT22;10382;49.140;9.234;2022-09-27T14:27:16;12.60;99.90
20446;DHT22;10382;49.140;9.234;2022-09-27T14:29:46;12.70;99.90
20446;DHT22;10382;49.140;9.234;2022-09-27T14:32:16;12.60;99.90
20446;DHT22;10382;49.140;9.234;2022-09-27T14:34:43;12.50;99.90
20446;DHT22;10382;49.140;9.234;2022-09-27T14:37:19;12.30;99.90
20446;DHT22;10382;49.140;9.234;2022-09-27T14:40:00;12.20;99.90
20446;DHT22;10382;49.140;9.234;2022-09-27T14:42:32;12.30;99.90
20446;DHT22;10382;49.140;9.234;2022-09-27T14:45:05;12.30;99.90
20446;DHT22;10382;49.140;9.234;2022-09-27T14:47:44;12.30;99.90
20446;DHT22;10382;49.140;9.234;2022-09-27T14:50:17;12.30;99.90
20446;DHT22;10382;49.140;9.234;2022-09-27T14:52:44;12.30;99.90
20446;DHT22;10382;49.140;9.234;2022-09-27T14:55:16;12.20;99.90
20446;DHT22;10382;49.140;9.234;2022-09-27T14:57:45;12.10;99.90
20446;DHT22;10382;49.140;9.234;2022-09-27T15:00:17;11.90;99.90
20446;DHT22;10382;49.140;9.234;2022-09-27T15:02:47;11.90;99.90
20446;DHT22;10382;49.140;9.234;2022-09-27T15:05:17;11.90;99.90
20446;DHT22;10382;49.140;9.234;2022-09-27T15:07:46;11.90;99.90
20446;DHT22;10382;49.140;9.234;2022-09-27T15:10:15;12.00;99.90
20446;DHT22;10382;49.140;9.234;2022-09-27T15:12:44;12.10;99.90
20446;DHT22;10382;49.140;9.234;2022-09-27T15:15:14;12.10;99.90
20446;DHT22;10382;49.140;9.234;2022-09-27T15:17:43;12.20;99.90
20446;DHT22;10382;49.140;9.234;2022-09-27T15:20:27;12.30;99.90
20446;DHT22;10382;49.140;9.234;2022-09-27T15:22:55;12.40;99.90
20446;DHT22;10382;49.140;9.234;2022-09-27T15:25:26;12.50;99.90
20446;DHT22;10382;49.140;9.234;2022-09-27T15:27:58;12.80;99.90
20446;DHT22;10382;49.140;9.234;2022-09-27T15:30:28;12.90;99.90
20446;DHT22;10382;49.140;9.234;2022-09-27T15:32:59;12.70;99.90
20446;DHT22;10382;49.140;9.234;2022-09-27T15:35:29;12.60;99.90
20446;DHT22;10382;49.140;9.234;2022-09-27T15:38:23;12.40;99.90
20446;DHT22;10382;49.140;9.234;2022-09-27T15:41:03;12.40;99.90
20446;DHT22;10382;49.140;9.234;2022-09-27T15:43:32;12.30;99.90
20446;DHT22;10382;49.140;9.234;2022-09-27T15:46:00;12.10;99.90
20446;DHT22;10382;49.140;9.234;2022-09-27T15:48:30;12.10;99.90
20446;DHT22;10382;49.140;9.234;2022-09-27T15:50:59;12.00;99.90
20446;DHT22;10382;49.140;9.234;2022-09-27T15:53:43;11.90;99.90
20446;DHT22;10382;49.140;9.234;2022-09-27T15:56:13;11.80;99.90
20446;DHT22;10382;49.140;9.234;2022-09-27T15:58:40;11.70;99.90
20446;DHT22;10382;49.140;9.234;2022-09-27T16:01:18;11.50;99.90
20446;DHT22;10382;49.140;9.234;2022-09-27T16:03:46;11.40;99.90
20446;DHT22;10382;49.140;9.234;2022-09-27T16:06:15;11.40;99.90
20446;DHT22;10382;49.140;9.234;2022-09-27T16:08:43;11.60;99.90
20446;DHT22;10382;49.140;9.234;2022-09-27T16:11:13;11.70;99.90
20446;DHT22;10382;49.140;9.234;2022-09-27T16:13:42;11.90;99.90
20446;DHT22;10382;49.140;9.234;2022-09-27T16:16:14;12.00;99.90
20446;DHT22;10382;49.140;9.234;2022-09-27T16:18:42;12.00;99.90
20446;DHT22;10382;49.140;9.234;2022-09-27T16:21:09;12.10;99.90
20446;DHT22;10382;49.140;9.234;2022-09-27T16:23:38;12.00;99.90